sensor_id;sensor_type;location;lat;lon;timestamp;P1;durP1;ratioP1;P2;durP2;ratioP2
15645;SDS011;7922;43.622;1.476;2023-02-28T00:01:55;4.63;;;4.17;;
15645;SDS011;7922;43.622;1.476;2023-02-28T00:04:20;4.00;;;3.60;;
15645;SDS011;7922;43.622;1.476;2023-02-28T00:06:45;4.90;;;4.10;;
15645;SDS011;7922;43.622;1.476;2023-02-28T00:09:10;4.53;;;4.00;;
15645;SDS011;7922;43.622;1.476;2023-02-28T00:11:36;3.97;;;3.67;;
15645;SDS011;7922;43.622;1.476;2023-02-28T00:14:01;4.37;;;3.97;;
15645;SDS011;7922;43.622;1.476;2023-02-28T00:16:26;5.47;;;4.60;;
15645;SDS011;7922;43.622;1.476;2023-02-28T00:18:51;5.27;;;3.87;;
15645;SDS011;7922;43.622;1.476;2023-02-28T00:21:17;4.13;;;3.73;;
15645;SDS011;7922;43.622;1.476;2023-02-28T00:23:44;4.47;;;4.07;;
15645;SDS011;7922;43.622;1.476;2023-02-28T00:26:09;4.20;;;3.90;;
15645;SDS011;7922;43.622;1.476;2023-02-28T00:28:35;6.43;;;4.03;;
15645;SDS011;7922;43.622;1.476;2023-02-28T00:31:00;4.47;;;4.07;;
15645;SDS011;7922;43.622;1.476;2023-02-28T00:33:26;4.80;;;4.03;;
15645;SDS011;7922;43.622;1.476;2023-02-28T00:35:51;5.20;;;4.80;;
15645;SDS011;7922;43.622;1.476;2023-02-28T00:38:17;4.80;;;4.40;;
15645;SDS011;7922;43.622;1.476;2023-02-28T00:40:42;4.83;;;4.37;;
15645;SDS011;7922;43.622;1.476;2023-02-28T00:43:07;4.60;;;4.13;;
15645;SDS011;7922;43.622;1.476;2023-02-28T00:45:33;4.87;;;4.37;;
15645;SDS011;7922;43.622;1.476;2023-02-28T00:47:58;4.57;;;4.17;;
15645;SDS011;7922;43.622;1.476;2023-02-28T00:50:23;4.83;;;3.90;;
15645;SDS011;7922;43.622;1.476;2023-02-28T00:52:49;5.30;;;4.30;;
15645;SDS011;7922;43.622;1.476;2023-02-28T00:55:14;5.50;;;5.00;;
15645;SDS011;7922;43.622;1.476;2023-02-28T00:57:39;4.77;;;4.37;;
15645;SDS011;7922;43.622;1.476;2023-02-28T01:00:05;4.40;;;4.10;;
15645;SDS011;7922;43.622;1.476;2023-02-28T01:02:31;4.87;;;4.47;;
15645;SDS011;7922;43.622;1.476;2023-02-28T01:04:57;4.60;;;4.20;;
15645;SDS011;7922;43.622;1.476;2023-02-28T01:07:22;5.20;;;4.07;;
15645;SDS011;7922;43.622;1.476;2023-02-28T01:09:48;4.20;;;3.80;;
15645;SDS011;7922;43.622;1.476;2023-02-28T01:12:13;4.40;;;4.00;;
15645;SDS011;7922;43.622;1.476;2023-02-28T01:14:39;4.00;;;3.70;;
15645;SDS011;7922;43.622;1.476;2023-02-28T01:17:04;4.57;;;4.00;;
15645;SDS011;7922;43.622;1.476;2023-02-28T01:19:30;4.20;;;3.80;;
15645;SDS011;7922;43.622;1.476;2023-02-28T01:21:55;4.90;;;4.50;;
15645;SDS011;7922;43.622;1.476;2023-02-28T01:24:20;4.40;;;4.00;;
15645;SDS011;7922;43.622;1.476;2023-02-28T01:26:46;5.20;;;4.33;;
15645;SDS011;7922;43.622;1.476;2023-02-28T01:29:11;4.70;;;4.30;;
15645;SDS011;7922;43.622;1.476;2023-02-28T01:31:36;4.60;;;4.10;;
15645;SDS011;7922;43.622;1.476;2023-02-28T01:34:02;5.30;;;4.33;;
15645;SDS011;7922;43.622;1.476;2023-02-28T01:36:28;5.20;;;4.60;;
15645;SDS011;7922;43.622;1.476;2023-02-28T01:38:53;6.83;;;4.00;;
15645;SDS011;7922;43.622;1.476;2023-02-28T01:41:20;6.57;;;4.13;;
15645;SDS011;7922;43.622;1.476;2023-02-28T01:46:13;5.13;;;4.53;;
15645;SDS011;7922;43.622;1.476;2023-02-28T01:51:35;4.90;;;4.37;;
15645;SDS011;7922;43.622;1.476;2023-02-28T01:54:07;4.93;;;4.40;;
15645;SDS011;7922;43.622;1.476;2023-02-28T01:56:35;5.10;;;4.60;;
15645;SDS011;7922;43.622;1.476;2023-02-28T01:59:01;4.77;;;4.27;;
15645;SDS011;7922;43.622;1.476;2023-02-28T02:01:27;6.33;;;4.53;;
15645;SDS011;7922;43.622;1.476;2023-02-28T02:03:57;6.40;;;4.30;;
15645;SDS011;7922;43.622;1.476;2023-02-28T02:06:26;4.53;;;4.17;;
15645;SDS011;7922;43.622;1.476;2023-02-28T02:08:54;6.07;;;4.37;;
15645;SDS011;7922;43.622;1.476;2023-02-28T02:11:20;5.03;;;4.53;;
15645;SDS011;7922;43.622;1.476;2023-02-28T02:21:53;5.10;;;4.53;;
15645;SDS011;7922;43.622;1.476;2023-02-28T02:29:35;5.20;;;4.37;;
15645;SDS011;7922;43.622;1.476;2023-02-28T02:34:56;5.40;;;4.90;;
15645;SDS011;7922;43.622;1.476;2023-02-28T02:37:53;5.50;;;4.63;;
15645;SDS011;7922;43.622;1.476;2023-02-28T02:40:35;4.77;;;4.37;;
15645;SDS011;7922;43.622;1.476;2023-02-28T02:43:10;6.30;;;4.27;;
15645;SDS011;7922;43.622;1.476;2023-02-28T02:45:49;5.27;;;4.50;;
15645;SDS011;7922;43.622;1.476;2023-02-28T02:48:17;5.50;;;4.47;;
15645;SDS011;7922;43.622;1.476;2023-02-28T02:50:50;5.67;;;5.17;;
15645;SDS011;7922;43.622;1.476;2023-02-28T02:53:19;5.77;;;4.50;;
15645;SDS011;7922;43.622;1.476;2023-02-28T02:55:52;5.00;;;4.53;;
15645;SDS011;7922;43.622;1.476;2023-02-28T02:58:20;5.23;;;4.73;;
15645;SDS011;7922;43.622;1.476;2023-02-28T03:00:51;5.20;;;4.70;;
15645;SDS011;7922;43.622;1.476;2023-02-28T03:03:19;5.53;;;5.03;;
15645;SDS011;7922;43.622;1.476;2023-02-28T03:05:49;5.20;;;4.60;;
15645;SDS011;7922;43.622;1.476;2023-02-28T03:08:16;5.63;;;4.43;;
15645;SDS011;7922;43.622;1.476;2023-02-28T03:10:43;5.50;;;5.00;;
15645;SDS011;7922;43.622;1.476;2023-02-28T03:13:17;5.67;;;5.07;;
15645;SDS011;7922;43.622;1.476;2023-02-28T03:15:51;5.63;;;4.70;;
15645;SDS011;7922;43.622;1.476;2023-02-28T03:21:03;5.07;;;4.40;;
15645;SDS011;7922;43.622;1.476;2023-02-28T03:26:30;6.63;;;4.67;;
15645;SDS011;7922;43.622;1.476;2023-02-28T03:31:58;5.77;;;5.20;;
15645;SDS011;7922;43.622;1.476;2023-02-28T03:34:30;6.07;;;5.20;;
15645;SDS011;7922;43.622;1.476;2023-02-28T03:36:59;6.40;;;5.10;;
15645;SDS011;7922;43.622;1.476;2023-02-28T03:39:40;6.47;;;5.30;;
15645;SDS011;7922;43.622;1.476;2023-02-28T03:42:11;6.17;;;5.13;;
15645;SDS011;7922;43.622;1.476;2023-02-28T03:44:45;5.57;;;4.93;;
15645;SDS011;7922;43.622;1.476;2023-02-28T03:47:16;7.13;;;5.13;;
15645;SDS011;7922;43.622;1.476;2023-02-28T03:49:49;5.87;;;5.27;;
15645;SDS011;7922;43.622;1.476;2023-02-28T03:52:19;6.17;;;5.23;;
15645;SDS011;7922;43.622;1.476;2023-02-28T03:54:50;5.30;;;4.80;;
15645;SDS011;7922;43.622;1.476;2023-02-28T04:00:06;5.43;;;4.93;;
15645;SDS011;7922;43.622;1.476;2023-02-28T04:02:39;7.00;;;5.20;;
15645;SDS011;7922;43.622;1.476;2023-02-28T04:05:04;4.97;;;4.57;;
15645;SDS011;7922;43.622;1.476;2023-02-28T04:07:30;6.33;;;5.40;;
15645;SDS011;7922;43.622;1.476;2023-02-28T04:09:56;6.00;;;5.50;;
15645;SDS011;7922;43.622;1.476;2023-02-28T04:12:22;7.13;;;5.40;;
15645;SDS011;7922;43.622;1.476;2023-02-28T04:14:48;6.07;;;5.47;;
15645;SDS011;7922;43.622;1.476;2023-02-28T04:17:14;8.20;;;5.73;;
15645;SDS011;7922;43.622;1.476;2023-02-28T04:19:40;6.20;;;5.60;;
15645;SDS011;7922;43.622;1.476;2023-02-28T04:22:05;5.90;;;5.33;;
15645;SDS011;7922;43.622;1.476;2023-02-28T04:24:33;5.43;;;4.93;;
15645;SDS011;7922;43.622;1.476;2023-02-28T04:26:58;5.80;;;5.27;;
15645;SDS011;7922;43.622;1.476;2023-02-28T04:29:25;5.93;;;5.33;;
15645;SDS011;7922;43.622;1.476;2023-02-28T04:31:56;7.30;;;5.23;;
15645;SDS011;7922;43.622;1.476;2023-02-28T04:34:23;5.70;;;5.00;;
15645;SDS011;7922;43.622;1.476;2023-02-28T04:36:48;6.23;;;5.63;;
15645;SDS011;7922;43.622;1.476;2023-02-28T04:39:14;5.93;;;5.33;;
15645;SDS011;7922;43.622;1.476;2023-02-28T04:41:40;6.23;;;5.33;;
15645;SDS011;7922;43.622;1.476;2023-02-28T04:44:05;5.77;;;5.27;;
15645;SDS011;7922;43.622;1.476;2023-02-28T04:46:31;7.07;;;5.23;;
15645;SDS011;7922;43.622;1.476;2023-02-28T04:48:56;6.00;;;5.40;;
15645;SDS011;7922;43.622;1.476;2023-02-28T04:51:21;6.33;;;5.70;;
15645;SDS011;7922;43.622;1.476;2023-02-28T04:53:47;6.33;;;5.73;;
15645;SDS011;7922;43.622;1.476;2023-02-28T04:56:14;6.20;;;5.60;;
15645;SDS011;7922;43.622;1.476;2023-02-28T04:58:40;5.73;;;4.90;;
15645;SDS011;7922;43.622;1.476;2023-02-28T05:03:44;5.90;;;5.33;;
15645;SDS011;7922;43.622;1.476;2023-02-28T05:06:10;6.60;;;5.50;;
15645;SDS011;7922;43.622;1.476;2023-02-28T05:08:37;7.03;;;5.67;;
15645;SDS011;7922;43.622;1.476;2023-02-28T05:11:03;5.60;;;5.03;;
15645;SDS011;7922;43.622;1.476;2023-02-28T05:13:31;5.77;;;5.27;;
15645;SDS011;7922;43.622;1.476;2023-02-28T05:15:56;6.20;;;5.60;;
15645;SDS011;7922;43.622;1.476;2023-02-28T05:18:21;5.87;;;5.33;;
15645;SDS011;7922;43.622;1.476;2023-02-28T05:20:47;6.00;;;5.50;;
15645;SDS011;7922;43.622;1.476;2023-02-28T05:23:13;6.73;;;6.00;;
15645;SDS011;7922;43.622;1.476;2023-02-28T05:25:40;7.37;;;5.83;;
15645;SDS011;7922;43.622;1.476;2023-02-28T05:28:06;6.47;;;5.87;;
15645;SDS011;7922;43.622;1.476;2023-02-28T05:30:32;6.40;;;5.80;;
15645;SDS011;7922;43.622;1.476;2023-02-28T05:32:57;6.77;;;5.70;;
15645;SDS011;7922;43.622;1.476;2023-02-28T05:35:23;6.17;;;5.60;;
15645;SDS011;7922;43.622;1.476;2023-02-28T05:37:49;7.77;;;6.43;;
15645;SDS011;7922;43.622;1.476;2023-02-28T05:40:14;6.10;;;5.50;;
15645;SDS011;7922;43.622;1.476;2023-02-28T05:42:40;7.17;;;6.47;;
15645;SDS011;7922;43.622;1.476;2023-02-28T05:45:06;6.67;;;5.97;;
15645;SDS011;7922;43.622;1.476;2023-02-28T05:47:32;6.33;;;5.73;;
15645;SDS011;7922;43.622;1.476;2023-02-28T05:49:58;7.37;;;6.43;;
15645;SDS011;7922;43.622;1.476;2023-02-28T05:52:23;7.57;;;6.70;;
15645;SDS011;7922;43.622;1.476;2023-02-28T05:54:48;7.43;;;6.40;;
15645;SDS011;7922;43.622;1.476;2023-02-28T05:57:14;7.37;;;6.30;;
15645;SDS011;7922;43.622;1.476;2023-02-28T05:59:39;10.37;;;7.07;;
15645;SDS011;7922;43.622;1.476;2023-02-28T06:02:05;8.23;;;6.50;;
15645;SDS011;7922;43.622;1.476;2023-02-28T06:04:35;8.30;;;7.30;;
15645;SDS011;7922;43.622;1.476;2023-02-28T06:07:01;7.20;;;6.50;;
15645;SDS011;7922;43.622;1.476;2023-02-28T06:09:26;7.70;;;6.43;;
15645;SDS011;7922;43.622;1.476;2023-02-28T06:11:51;8.00;;;6.77;;
15645;SDS011;7922;43.622;1.476;2023-02-28T06:14:17;7.50;;;6.80;;
15645;SDS011;7922;43.622;1.476;2023-02-28T06:16:44;9.60;;;6.60;;
15645;SDS011;7922;43.622;1.476;2023-02-28T06:19:10;9.63;;;6.70;;
15645;SDS011;7922;43.622;1.476;2023-02-28T06:21:35;7.67;;;6.90;;
15645;SDS011;7922;43.622;1.476;2023-02-28T06:24:02;7.50;;;6.27;;
15645;SDS011;7922;43.622;1.476;2023-02-28T06:26:28;7.73;;;6.27;;
15645;SDS011;7922;43.622;1.476;2023-02-28T06:28:54;9.87;;;7.17;;
15645;SDS011;7922;43.622;1.476;2023-02-28T06:31:20;7.03;;;6.33;;
15645;SDS011;7922;43.622;1.476;2023-02-28T06:33:45;8.97;;;7.13;;
15645;SDS011;7922;43.622;1.476;2023-02-28T06:36:12;7.90;;;7.10;;
15645;SDS011;7922;43.622;1.476;2023-02-28T06:38:38;9.60;;;7.77;;
15645;SDS011;7922;43.622;1.476;2023-02-28T06:41:05;8.20;;;7.23;;
15645;SDS011;7922;43.622;1.476;2023-02-28T06:43:32;8.27;;;7.30;;
15645;SDS011;7922;43.622;1.476;2023-02-28T06:45:59;8.13;;;6.83;;
15645;SDS011;7922;43.622;1.476;2023-02-28T06:48:26;7.67;;;6.97;;
15645;SDS011;7922;43.622;1.476;2023-02-28T06:50:52;9.03;;;7.73;;
15645;SDS011;7922;43.622;1.476;2023-02-28T06:53:25;8.27;;;7.33;;
15645;SDS011;7922;43.622;1.476;2023-02-28T06:55:51;7.50;;;6.80;;
15645;SDS011;7922;43.622;1.476;2023-02-28T06:58:16;8.53;;;7.23;;
15645;SDS011;7922;43.622;1.476;2023-02-28T07:00:42;12.10;;;8.20;;
15645;SDS011;7922;43.622;1.476;2023-02-28T07:03:07;8.03;;;7.20;;
15645;SDS011;7922;43.622;1.476;2023-02-28T07:05:34;10.20;;;6.87;;
15645;SDS011;7922;43.622;1.476;2023-02-28T07:08:00;7.53;;;6.67;;
15645;SDS011;7922;43.622;1.476;2023-02-28T07:10:26;8.20;;;7.20;;
15645;SDS011;7922;43.622;1.476;2023-02-28T07:12:51;8.33;;;7.33;;
15645;SDS011;7922;43.622;1.476;2023-02-28T07:15:16;11.47;;;7.60;;
15645;SDS011;7922;43.622;1.476;2023-02-28T07:17:41;7.97;;;7.27;;
15645;SDS011;7922;43.622;1.476;2023-02-28T07:20:07;8.87;;;7.20;;
15645;SDS011;7922;43.622;1.476;2023-02-28T07:22:33;8.33;;;7.23;;
15645;SDS011;7922;43.622;1.476;2023-02-28T07:24:58;10.20;;;7.77;;
15645;SDS011;7922;43.622;1.476;2023-02-28T07:27:23;10.23;;;7.70;;
15645;SDS011;7922;43.622;1.476;2023-02-28T07:29:51;8.97;;;7.27;;
15645;SDS011;7922;43.622;1.476;2023-02-28T07:32:17;8.90;;;7.13;;
15645;SDS011;7922;43.622;1.476;2023-02-28T07:34:43;8.57;;;7.27;;
15645;SDS011;7922;43.622;1.476;2023-02-28T07:37:09;8.33;;;7.27;;
15645;SDS011;7922;43.622;1.476;2023-02-28T07:39:35;9.17;;;7.80;;
15645;SDS011;7922;43.622;1.476;2023-02-28T07:42:00;8.07;;;7.23;;
15645;SDS011;7922;43.622;1.476;2023-02-28T07:44:28;7.50;;;6.40;;
15645;SDS011;7922;43.622;1.476;2023-02-28T07:46:54;8.07;;;7.23;;
15645;SDS011;7922;43.622;1.476;2023-02-28T07:49:19;9.57;;;6.90;;
15645;SDS011;7922;43.622;1.476;2023-02-28T07:51:44;8.53;;;6.67;;
15645;SDS011;7922;43.622;1.476;2023-02-28T07:54:09;8.23;;;7.00;;
15645;SDS011;7922;43.622;1.476;2023-02-28T07:56:35;7.53;;;6.70;;
15645;SDS011;7922;43.622;1.476;2023-02-28T07:59:00;8.73;;;7.73;;
15645;SDS011;7922;43.622;1.476;2023-02-28T08:01:25;7.20;;;6.50;;
15645;SDS011;7922;43.622;1.476;2023-02-28T08:03:50;8.53;;;6.97;;
15645;SDS011;7922;43.622;1.476;2023-02-28T08:06:17;10.30;;;7.20;;
15645;SDS011;7922;43.622;1.476;2023-02-28T08:08:44;8.03;;;7.30;;
15645;SDS011;7922;43.622;1.476;2023-02-28T08:11:10;7.73;;;6.97;;
15645;SDS011;7922;43.622;1.476;2023-02-28T08:13:35;7.80;;;6.73;;
15645;SDS011;7922;43.622;1.476;2023-02-28T08:16:01;7.27;;;6.57;;
15645;SDS011;7922;43.622;1.476;2023-02-28T08:18:27;7.20;;;6.37;;
15645;SDS011;7922;43.622;1.476;2023-02-28T08:20:52;7.40;;;6.40;;
15645;SDS011;7922;43.622;1.476;2023-02-28T08:23:17;8.30;;;6.20;;
15645;SDS011;7922;43.622;1.476;2023-02-28T08:25:42;8.60;;;6.90;;
15645;SDS011;7922;43.622;1.476;2023-02-28T08:28:08;6.93;;;6.23;;
15645;SDS011;7922;43.622;1.476;2023-02-28T08:30:33;8.37;;;6.57;;
15645;SDS011;7922;43.622;1.476;2023-02-28T08:32:58;8.00;;;6.90;;
15645;SDS011;7922;43.622;1.476;2023-02-28T08:35:24;8.83;;;6.87;;
15645;SDS011;7922;43.622;1.476;2023-02-28T08:37:49;7.70;;;6.77;;
15645;SDS011;7922;43.622;1.476;2023-02-28T08:40:14;6.60;;;6.00;;
15645;SDS011;7922;43.622;1.476;2023-02-28T08:42:40;9.90;;;6.50;;
15645;SDS011;7922;43.622;1.476;2023-02-28T08:45:05;7.23;;;6.57;;
15645;SDS011;7922;43.622;1.476;2023-02-28T08:47:31;7.13;;;6.53;;
15645;SDS011;7922;43.622;1.476;2023-02-28T08:49:56;6.53;;;6.00;;
15645;SDS011;7922;43.622;1.476;2023-02-28T08:52:21;7.23;;;6.53;;
15645;SDS011;7922;43.622;1.476;2023-02-28T08:54:47;9.20;;;5.97;;
15645;SDS011;7922;43.622;1.476;2023-02-28T08:57:12;7.17;;;6.53;;
15645;SDS011;7922;43.622;1.476;2023-02-28T08:59:37;7.07;;;6.37;;
15645;SDS011;7922;43.622;1.476;2023-02-28T09:02:03;7.63;;;6.60;;
15645;SDS011;7922;43.622;1.476;2023-02-28T09:04:28;8.17;;;6.20;;
15645;SDS011;7922;43.622;1.476;2023-02-28T09:06:53;8.30;;;6.27;;
15645;SDS011;7922;43.622;1.476;2023-02-28T09:09:18;7.17;;;6.50;;
15645;SDS011;7922;43.622;1.476;2023-02-28T09:11:44;8.73;;;6.87;;
15645;SDS011;7922;43.622;1.476;2023-02-28T09:14:09;7.63;;;6.80;;
15645;SDS011;7922;43.622;1.476;2023-02-28T09:16:34;8.43;;;6.57;;
15645;SDS011;7922;43.622;1.476;2023-02-28T09:19:00;10.40;;;7.93;;
15645;SDS011;7922;43.622;1.476;2023-02-28T09:21:25;9.80;;;7.20;;
15645;SDS011;7922;43.622;1.476;2023-02-28T09:23:51;6.53;;;5.93;;
15645;SDS011;7922;43.622;1.476;2023-02-28T09:26:18;6.87;;;6.10;;
15645;SDS011;7922;43.622;1.476;2023-02-28T09:28:46;6.73;;;6.13;;
15645;SDS011;7922;43.622;1.476;2023-02-28T09:31:13;8.77;;;6.10;;
15645;SDS011;7922;43.622;1.476;2023-02-28T09:33:39;7.80;;;5.93;;
15645;SDS011;7922;43.622;1.476;2023-02-28T09:36:04;8.83;;;6.23;;
15645;SDS011;7922;43.622;1.476;2023-02-28T09:38:29;9.23;;;6.27;;
15645;SDS011;7922;43.622;1.476;2023-02-28T09:43:27;7.33;;;5.80;;
15645;SDS011;7922;43.622;1.476;2023-02-28T09:46:03;9.73;;;5.90;;
15645;SDS011;7922;43.622;1.476;2023-02-28T09:48:47;7.33;;;6.07;;
15645;SDS011;7922;43.622;1.476;2023-02-28T09:53:39;6.30;;;5.70;;
15645;SDS011;7922;43.622;1.476;2023-02-28T09:56:21;6.30;;;5.67;;
15645;SDS011;7922;43.622;1.476;2023-02-28T09:59:03;6.00;;;5.40;;
15645;SDS011;7922;43.622;1.476;2023-02-28T10:01:42;7.80;;;5.50;;
15645;SDS011;7922;43.622;1.476;2023-02-28T10:10:13;6.20;;;5.67;;
15645;SDS011;7922;43.622;1.476;2023-02-28T10:12:52;5.93;;;5.33;;
15645;SDS011;7922;43.622;1.476;2023-02-28T10:15:21;8.00;;;5.70;;
15645;SDS011;7922;43.622;1.476;2023-02-28T10:17:51;6.33;;;5.73;;
15645;SDS011;7922;43.622;1.476;2023-02-28T10:20:22;6.20;;;5.60;;
15645;SDS011;7922;43.622;1.476;2023-02-28T10:25:26;6.17;;;5.57;;
15645;SDS011;7922;43.622;1.476;2023-02-28T10:27:54;5.57;;;5.07;;
15645;SDS011;7922;43.622;1.476;2023-02-28T10:30:36;8.20;;;5.50;;
15645;SDS011;7922;43.622;1.476;2023-02-28T10:33:08;7.73;;;6.23;;
15645;SDS011;7922;43.622;1.476;2023-02-28T10:35:49;7.07;;;6.17;;
15645;SDS011;7922;43.622;1.476;2023-02-28T10:38:38;6.47;;;5.73;;
15645;SDS011;7922;43.622;1.476;2023-02-28T10:44:14;6.30;;;5.30;;
15645;SDS011;7922;43.622;1.476;2023-02-28T10:46:46;7.83;;;5.80;;
15645;SDS011;7922;43.622;1.476;2023-02-28T10:49:13;9.73;;;6.37;;
15645;SDS011;7922;43.622;1.476;2023-02-28T10:51:42;6.33;;;5.80;;
15645;SDS011;7922;43.622;1.476;2023-02-28T10:54:14;7.77;;;5.80;;
15645;SDS011;7922;43.622;1.476;2023-02-28T10:56:42;6.83;;;5.60;;
15645;SDS011;7922;43.622;1.476;2023-02-28T11:03:58;6.87;;;5.77;;
15645;SDS011;7922;43.622;1.476;2023-02-28T11:06:31;7.93;;;5.47;;
15645;SDS011;7922;43.622;1.476;2023-02-28T11:08:59;6.07;;;5.57;;
15645;SDS011;7922;43.622;1.476;2023-02-28T11:11:44;6.83;;;5.90;;
15645;SDS011;7922;43.622;1.476;2023-02-28T11:14:17;7.00;;;6.07;;
15645;SDS011;7922;43.622;1.476;2023-02-28T11:16:44;9.07;;;6.10;;
15645;SDS011;7922;43.622;1.476;2023-02-28T11:19:15;6.50;;;5.87;;
15645;SDS011;7922;43.622;1.476;2023-02-28T11:21:47;9.77;;;6.30;;
15645;SDS011;7922;43.622;1.476;2023-02-28T11:24:27;6.30;;;5.60;;
15645;SDS011;7922;43.622;1.476;2023-02-28T11:26:56;6.07;;;5.47;;
15645;SDS011;7922;43.622;1.476;2023-02-28T11:29:23;8.60;;;6.13;;
15645;SDS011;7922;43.622;1.476;2023-02-28T11:32:02;8.13;;;5.77;;
15645;SDS011;7922;43.622;1.476;2023-02-28T11:34:34;6.73;;;5.67;;
15645;SDS011;7922;43.622;1.476;2023-02-28T11:37:01;9.00;;;6.33;;
15645;SDS011;7922;43.622;1.476;2023-02-28T11:39:27;6.87;;;5.80;;
15645;SDS011;7922;43.622;1.476;2023-02-28T11:44:40;5.93;;;5.43;;
15645;SDS011;7922;43.622;1.476;2023-02-28T11:47:17;7.87;;;5.70;;
15645;SDS011;7922;43.622;1.476;2023-02-28T11:49:58;7.43;;;5.77;;
15645;SDS011;7922;43.622;1.476;2023-02-28T11:52:40;7.47;;;6.33;;
15645;SDS011;7922;43.622;1.476;2023-02-28T11:55:24;7.77;;;5.87;;
15645;SDS011;7922;43.622;1.476;2023-02-28T12:00:38;7.40;;;5.87;;
15645;SDS011;7922;43.622;1.476;2023-02-28T12:22:12;6.33;;;5.73;;
15645;SDS011;7922;43.622;1.476;2023-02-28T12:27:28;6.20;;;5.60;;
15645;SDS011;7922;43.622;1.476;2023-02-28T12:30:13;6.87;;;6.10;;
15645;SDS011;7922;43.622;1.476;2023-02-28T12:32:47;7.13;;;5.80;;
15645;SDS011;7922;43.622;1.476;2023-02-28T12:35:18;6.47;;;5.63;;
15645;SDS011;7922;43.622;1.476;2023-02-28T12:37:57;6.93;;;5.57;;
15645;SDS011;7922;43.622;1.476;2023-02-28T12:40:32;6.40;;;5.80;;
15645;SDS011;7922;43.622;1.476;2023-02-28T12:43:07;6.23;;;5.63;;
15645;SDS011;7922;43.622;1.476;2023-02-28T12:48:10;6.60;;;5.90;;
15645;SDS011;7922;43.622;1.476;2023-02-28T12:50:40;7.03;;;6.10;;
15645;SDS011;7922;43.622;1.476;2023-02-28T12:58:34;8.47;;;5.70;;
15645;SDS011;7922;43.622;1.476;2023-02-28T13:04:29;7.63;;;6.20;;
15645;SDS011;7922;43.622;1.476;2023-02-28T13:09:55;6.57;;;5.97;;
15645;SDS011;7922;43.622;1.476;2023-02-28T13:12:22;7.60;;;6.00;;
15645;SDS011;7922;43.622;1.476;2023-02-28T13:14:48;6.73;;;6.03;;
15645;SDS011;7922;43.622;1.476;2023-02-28T13:17:33;6.68;;;5.93;;
15645;SDS011;7922;43.622;1.476;2023-02-28T13:19:58;6.50;;;5.90;;
15645;SDS011;7922;43.622;1.476;2023-02-28T13:22:49;5.44;;;4.96;;
15645;SDS011;7922;43.622;1.476;2023-02-28T13:28:13;7.10;;;5.55;;
15645;SDS011;7922;43.622;1.476;2023-02-28T13:31:14;5.93;;;5.43;;
15645;SDS011;7922;43.622;1.476;2023-02-28T13:38:40;6.53;;;5.57;;
15645;SDS011;7922;43.622;1.476;2023-02-28T13:44:13;7.10;;;5.50;;
15645;SDS011;7922;43.622;1.476;2023-02-28T13:49:25;6.00;;;5.40;;
15645;SDS011;7922;43.622;1.476;2023-02-28T14:05:13;5.97;;;5.33;;
15645;SDS011;7922;43.622;1.476;2023-02-28T14:07:50;5.90;;;5.23;;
15645;SDS011;7922;43.622;1.476;2023-02-28T14:10:28;6.13;;;5.53;;
15645;SDS011;7922;43.622;1.476;2023-02-28T14:15:26;5.80;;;5.10;;
15645;SDS011;7922;43.622;1.476;2023-02-28T14:17:58;5.50;;;5.00;;
15645;SDS011;7922;43.622;1.476;2023-02-28T14:20:26;6.10;;;5.10;;
15645;SDS011;7922;43.622;1.476;2023-02-28T14:23:10;5.97;;;5.37;;
15645;SDS011;7922;43.622;1.476;2023-02-28T14:31:29;6.27;;;5.50;;
15645;SDS011;7922;43.622;1.476;2023-02-28T14:34:17;7.10;;;5.30;;
15645;SDS011;7922;43.622;1.476;2023-02-28T14:36:51;7.07;;;5.20;;
15645;SDS011;7922;43.622;1.476;2023-02-28T14:39:24;5.73;;;5.23;;
15645;SDS011;7922;43.622;1.476;2023-02-28T14:41:52;5.50;;;5.00;;
15645;SDS011;7922;43.622;1.476;2023-02-28T14:44:21;5.23;;;4.70;;
15645;SDS011;7922;43.622;1.476;2023-02-28T14:46:55;5.90;;;4.60;;
15645;SDS011;7922;43.622;1.476;2023-02-28T14:49:31;5.30;;;4.80;;
15645;SDS011;7922;43.622;1.476;2023-02-28T14:52:21;5.40;;;4.90;;
15645;SDS011;7922;43.622;1.476;2023-02-28T14:54:51;4.80;;;4.40;;
15645;SDS011;7922;43.622;1.476;2023-02-28T14:59:56;6.23;;;4.70;;
15645;SDS011;7922;43.622;1.476;2023-02-28T15:02:29;7.00;;;4.50;;
15645;SDS011;7922;43.622;1.476;2023-02-28T15:04:59;5.20;;;4.40;;
15645;SDS011;7922;43.622;1.476;2023-02-28T15:07:35;5.03;;;4.40;;
15645;SDS011;7922;43.622;1.476;2023-02-28T15:12:54;6.13;;;4.50;;
15645;SDS011;7922;43.622;1.476;2023-02-28T15:15:20;4.90;;;4.40;;
15645;SDS011;7922;43.622;1.476;2023-02-28T15:17:50;5.10;;;4.60;;
15645;SDS011;7922;43.622;1.476;2023-02-28T15:20:19;6.87;;;4.23;;
15645;SDS011;7922;43.622;1.476;2023-02-28T15:22:46;5.23;;;4.27;;
15645;SDS011;7922;43.622;1.476;2023-02-28T15:25:13;5.77;;;4.60;;
15645;SDS011;7922;43.622;1.476;2023-02-28T15:27:44;4.87;;;4.47;;
15645;SDS011;7922;43.622;1.476;2023-02-28T15:30:17;4.93;;;4.40;;
15645;SDS011;7922;43.622;1.476;2023-02-28T15:33:04;5.40;;;4.80;;
15645;SDS011;7922;43.622;1.476;2023-02-28T15:35:32;6.37;;;4.67;;
15645;SDS011;7922;43.622;1.476;2023-02-28T15:38:02;5.83;;;5.20;;
15645;SDS011;7922;43.622;1.476;2023-02-28T15:40:29;5.10;;;4.60;;
15645;SDS011;7922;43.622;1.476;2023-02-28T15:43:00;5.63;;;4.30;;
15645;SDS011;7922;43.622;1.476;2023-02-28T15:45:37;5.37;;;4.87;;
15645;SDS011;7922;43.622;1.476;2023-02-28T15:48:13;5.30;;;4.80;;
15645;SDS011;7922;43.622;1.476;2023-02-28T15:50:43;5.80;;;5.10;;
15645;SDS011;7922;43.622;1.476;2023-02-28T15:53:15;5.30;;;4.53;;
15645;SDS011;7922;43.622;1.476;2023-02-28T15:55:44;4.77;;;4.27;;
15645;SDS011;7922;43.622;1.476;2023-02-28T15:58:11;5.27;;;4.77;;
15645;SDS011;7922;43.622;1.476;2023-02-28T16:00:37;5.40;;;4.87;;
15645;SDS011;7922;43.622;1.476;2023-02-28T16:03:22;5.97;;;5.33;;
15645;SDS011;7922;43.622;1.476;2023-02-28T16:06:07;6.00;;;5.40;;
15645;SDS011;7922;43.622;1.476;2023-02-28T16:08:33;5.50;;;5.00;;
15645;SDS011;7922;43.622;1.476;2023-02-28T16:10:58;5.73;;;5.13;;
15645;SDS011;7922;43.622;1.476;2023-02-28T16:13:24;4.93;;;4.43;;
15645;SDS011;7922;43.622;1.476;2023-02-28T16:15:49;5.93;;;5.20;;
15645;SDS011;7922;43.622;1.476;2023-02-28T16:18:14;5.00;;;4.53;;
15645;SDS011;7922;43.622;1.476;2023-02-28T16:20:40;6.43;;;4.70;;
15645;SDS011;7922;43.622;1.476;2023-02-28T16:23:05;4.90;;;4.40;;
15645;SDS011;7922;43.622;1.476;2023-02-28T16:25:37;5.80;;;4.57;;
15645;SDS011;7922;43.622;1.476;2023-02-28T16:28:07;6.03;;;4.67;;
15645;SDS011;7922;43.622;1.476;2023-02-28T16:30:42;5.17;;;4.70;;
15645;SDS011;7922;43.622;1.476;2023-02-28T16:33:08;5.73;;;4.60;;
15645;SDS011;7922;43.622;1.476;2023-02-28T16:35:34;7.23;;;4.70;;
15645;SDS011;7922;43.622;1.476;2023-02-28T16:38:02;7.03;;;5.23;;
15645;SDS011;7922;43.622;1.476;2023-02-28T16:40:27;4.93;;;4.43;;
15645;SDS011;7922;43.622;1.476;2023-02-28T16:42:59;5.23;;;4.73;;
15645;SDS011;7922;43.622;1.476;2023-02-28T16:45:26;5.40;;;4.90;;
15645;SDS011;7922;43.622;1.476;2023-02-28T16:47:52;5.90;;;4.77;;
15645;SDS011;7922;43.622;1.476;2023-02-28T16:50:19;7.23;;;4.73;;
15645;SDS011;7922;43.622;1.476;2023-02-28T16:52:54;5.00;;;4.60;;
15645;SDS011;7922;43.622;1.476;2023-02-28T16:55:20;5.20;;;4.70;;
15645;SDS011;7922;43.622;1.476;2023-02-28T16:57:51;5.57;;;4.50;;
15645;SDS011;7922;43.622;1.476;2023-02-28T17:00:25;5.70;;;4.67;;
15645;SDS011;7922;43.622;1.476;2023-02-28T17:02:51;5.33;;;4.83;;
15645;SDS011;7922;43.622;1.476;2023-02-28T17:05:16;7.13;;;5.80;;
15645;SDS011;7922;43.622;1.476;2023-02-28T17:07:42;6.27;;;5.17;;
15645;SDS011;7922;43.622;1.476;2023-02-28T17:10:18;5.60;;;4.83;;
15645;SDS011;7922;43.622;1.476;2023-02-28T17:12:48;6.60;;;5.30;;
15645;SDS011;7922;43.622;1.476;2023-02-28T17:15:18;6.63;;;5.17;;
15645;SDS011;7922;43.622;1.476;2023-02-28T17:17:45;5.30;;;4.80;;
15645;SDS011;7922;43.622;1.476;2023-02-28T17:20:21;6.30;;;5.17;;
15645;SDS011;7922;43.622;1.476;2023-02-28T17:22:47;6.10;;;5.47;;
15645;SDS011;7922;43.622;1.476;2023-02-28T17:25:13;7.03;;;5.17;;
15645;SDS011;7922;43.622;1.476;2023-02-28T17:27:38;5.43;;;4.93;;
15645;SDS011;7922;43.622;1.476;2023-02-28T17:30:13;6.13;;;4.90;;